Time;durP1;ratioP1;P1;durP2;ratioP2;P2;SDS_P1;SDS_P2;PMS_P1;PMS_P2;Temp;Humidity;BMP_temperature;BMP_pressure;BME280_temperature;BME280_humidity;BME280_pressure;Samples;Min_cycle;Max_cycle;Signal;HPM_P1;HPM_P2
2023/04/03 00:03:02;;;;;;;15.52;11.07;;;;;;;;;;10570116;28;20744;-83
2023/04/03 00:08:07;;;;;;;18.33;11.80;;;;;;;;;;10572607;28;20477;-83
2023/04/03 00:13:10;;;;;;;16.55;11.00;;;;;;;;;;10572999;28;20403;-84
2023/04/03 00:18:12;;;;;;;16.77;10.68;;;;;;;;;;10572092;28;20411;-84
2023/04/03 00:23:16;;;;;;;17.27;11.10;;;;;;;;;;10570234;28;20410;-84
2023/04/03 00:28:17;;;;;;;18.92;11.90;;;;;;;;;;10607066;22;20417;-84
2023/04/03 00:33:21;;;;;;;15.50;10.60;;;;;;;;;;10620407;27;20826;-84
2023/04/03 00:38:24;;;;;;;14.02;10.98;;;;;;;;;;10621252;27;20416;-84
2023/04/03 00:43:27;;;;;;;15.55;11.07;;;;;;;;;;10621486;27;20436;-84
2023/04/03 00:48:32;;;;;;;14.90;10.80;;;;;;;;;;10615705;27;20405;-84
2023/04/03 00:53:41;;;;;;;14.97;10.47;;;;;;;;;;10617947;27;20409;-84
2023/04/03 00:58:48;;;;;;;14.60;10.43;;;;;;;;;;10621875;27;20425;-85
2023/04/03 01:03:50;;;;;;;15.43;9.73;;;;;;;;;;10621599;27;20408;-84
2023/04/03 01:08:54;;;;;;;13.10;8.90;;;;;;;;;;10621539;27;20393;-84
2023/04/03 01:13:55;;;;;;;12.27;8.50;;;;;;;;;;10621385;27;20433;-84
2023/04/03 01:18:58;;;;;;;12.27;8.73;;;;;;;;;;10621330;27;20447;-84
2023/04/03 01:24:12;;;;;;;10.70;7.72;;;;;;;;;;10618402;27;20496;-84
2023/04/03 01:29:14;;;;;;;11.50;7.60;;;;;;;;;;10620070;27;20496;-84
2023/04/03 01:34:18;;;;;;;10.50;7.45;;;;;;;;;;10619630;27;20884;-84
2023/04/03 01:39:20;;;;;;;10.10;8.07;;;;;;;;;;10619872;27;20429;-84
2023/04/03 01:44:22;;;;;;;10.63;7.80;;;;;;;;;;10620758;27;20428;-84
2023/04/03 01:49:25;;;;;;;11.93;7.60;;;;;;;;;;10620009;27;20484;-84
2023/04/03 01:54:27;;;;;;;10.38;7.50;;;;;;;;;;10615760;27;20476;-84
2023/04/03 01:59:29;;;;;;;9.53;6.70;;;;;;;;;;10619794;27;20515;-84
2023/04/03 02:04:32;;;;;;;11.43;7.18;;;;;;;;;;10618222;27;20492;-84
2023/04/03 02:09:34;;;;;;;9.95;6.88;;;;;;;;;;10619075;27;20393;-84
2023/04/03 02:14:36;;;;;;;8.95;6.82;;;;;;;;;;10618666;27;20884;-84
2023/04/03 02:19:39;;;;;;;12.10;7.35;;;;;;;;;;10618467;27;20971;-84
2023/04/03 02:24:41;;;;;;;9.02;7.47;;;;;;;;;;10617936;27;20401;-84
2023/04/03 02:29:43;;;;;;;10.10;6.80;;;;;;;;;;10617669;27;20393;-84
2023/04/03 02:34:46;;;;;;;9.77;6.13;;;;;;;;;;10618022;27;20943;-84
2023/04/03 02:39:48;;;;;;;9.93;6.50;;;;;;;;;;10617790;27;20505;-84
2023/04/03 02:44:50;;;;;;;8.23;6.20;;;;;;;;;;10618065;27;20401;-84
2023/04/03 02:49:53;;;;;;;8.00;6.00;;;;;;;;;;10614398;27;20396;-84
2023/04/03 02:54:55;;;;;;;9.30;5.90;;;;;;;;;;10618258;27;20465;-84
2023/04/03 02:59:57;;;;;;;7.07;5.95;;;;;;;;;;10615967;27;20769;-84
2023/04/03 03:05:00;;;;;;;9.20;5.70;;;;;;;;;;10615393;27;20397;-83
2023/04/03 03:10:02;;;;;;;10.77;5.97;;;;;;;;;;10615890;27;20400;-84
2023/04/03 03:15:05;;;;;;;7.65;5.40;;;;;;;;;;10616925;27;20405;-84
2023/04/03 03:20:09;;;;;;;8.07;5.60;;;;;;;;;;10616460;27;20984;-84
2023/04/03 03:25:11;;;;;;;7.50;5.32;;;;;;;;;;10616602;27;20422;-83
2023/04/03 03:30:13;;;;;;;6.87;5.70;;;;;;;;;;10616042;27;20491;-83
2023/04/03 03:35:16;;;;;;;7.67;5.07;;;;;;;;;;10616517;27;21003;-84
2023/04/03 03:40:18;;;;;;;7.70;4.97;;;;;;;;;;10612511;27;20500;-83
2023/04/03 03:45:20;;;;;;;6.47;4.63;;;;;;;;;;10616475;27;20400;-84
2023/04/03 03:50:23;;;;;;;6.43;4.60;;;;;;;;;;10616321;27;20454;-84
2023/04/03 03:55:25;;;;;;;7.45;4.60;;;;;;;;;;10618133;27;20461;-84
2023/04/03 04:00:27;;;;;;;7.90;4.25;;;;;;;;;;10623571;27;20413;-84
2023/04/03 04:05:31;;;;;;;6.73;4.83;;;;;;;;;;10623702;27;20488;-84
2023/04/03 04:10:33;;;;;;;6.10;4.75;;;;;;;;;;10623842;27;20397;-83
2023/04/03 04:15:35;;;;;;;7.25;5.00;;;;;;;;;;10623208;27;20733;-84
2023/04/03 04:20:38;;;;;;;7.05;5.07;;;;;;;;;;10623172;27;20443;-84
2023/04/03 04:25:40;;;;;;;7.50;5.30;;;;;;;;;;10623139;27;20397;-84
2023/04/03 04:30:42;;;;;;;7.45;5.03;;;;;;;;;;10622832;27;20397;-84
2023/04/03 04:35:45;;;;;;;8.82;5.38;;;;;;;;;;10622856;27;20955;-83
2023/04/03 04:40:48;;;;;;;9.05;5.50;;;;;;;;;;10618143;27;20429;-83
2023/04/03 04:45:50;;;;;;;9.37;5.57;;;;;;;;;;10622293;27;20918;-84
2023/04/03 04:50:53;;;;;;;10.27;6.03;;;;;;;;;;10621400;27;20407;-84
2023/04/03 04:55:55;;;;;;;7.55;5.55;;;;;;;;;;10620936;27;20482;-83
2023/04/03 05:01:00;;;;;;;9.20;5.17;;;;;;;;;;10620813;27;20473;-83
2023/04/03 05:06:04;;;;;;;7.43;5.40;;;;;;;;;;10619798;27;20396;-83
2023/04/03 05:11:06;;;;;;;8.60;5.35;;;;;;;;;;10613119;27;20788;-83
2023/04/03 05:16:08;;;;;;;8.02;5.20;;;;;;;;;;10606089;27;20571;-84
2023/04/03 05:21:11;;;;;;;8.02;5.32;;;;;;;;;;10610337;27;20838;-83
2023/04/03 05:26:13;;;;;;;8.43;5.88;;;;;;;;;;10608973;27;20400;-83
2023/04/03 05:31:15;;;;;;;8.75;5.20;;;;;;;;;;10606251;27;20498;-83
2023/04/03 05:36:18;;;;;;;7.70;5.32;;;;;;;;;;10612786;27;20428;-84
2023/04/03 05:41:21;;;;;;;10.82;5.78;;;;;;;;;;10597423;27;21089;-85
2023/04/03 05:46:23;;;;;;;8.77;4.88;;;;;;;;;;10611934;27;20409;-82
2023/04/03 05:51:31;;;;;;;8.07;4.97;;;;;;;;;;10616585;27;20440;-84
2023/04/03 05:56:33;;;;;;;13.70;5.33;;;;;;;;;;10617168;27;20791;-84
2023/04/03 06:01:35;;;;;;;9.65;5.13;;;;;;;;;;10612632;27;20979;-82
2023/04/03 06:06:51;;;;;;;9.93;5.60;;;;;;;;;;10610547;27;20757;-84
2023/04/03 06:11:53;;;;;;;19.03;6.60;;;;;;;;;;10614726;27;20404;-84
2023/04/03 06:16:55;;;;;;;9.03;4.80;;;;;;;;;;10616916;27;20416;-84
2023/04/03 06:22:00;;;;;;;7.07;5.07;;;;;;;;;;10614949;27;20474;-84
2023/04/03 06:27:01;;;;;;;9.85;4.38;;;;;;;;;;10616929;27;20466;-84
2023/04/03 06:32:03;;;;;;;6.03;4.10;;;;;;;;;;10615873;27;20401;-84
2023/04/03 06:37:07;;;;;;;5.97;3.27;;;;;;;;;;10615181;27;20404;-84
2023/04/03 06:42:09;;;;;;;5.70;3.00;;;;;;;;;;10614882;27;20421;-77
2023/04/03 06:47:12;;;;;;;3.15;2.03;;;;;;;;;;10616691;27;20453;-85
2023/04/03 06:52:16;;;;;;;4.38;1.90;;;;;;;;;;10615877;27;20937;-84
2023/04/03 06:57:18;;;;;;;3.35;1.75;;;;;;;;;;10616317;27;20401;-84
2023/04/03 07:02:20;;;;;;;3.35;1.85;;;;;;;;;;10615924;27;20424;-83
2023/04/03 07:07:23;;;;;;;4.95;1.80;;;;;;;;;;10615949;27;20488;-84
2023/04/03 07:12:26;;;;;;;6.57;1.70;;;;;;;;;;10613356;27;20471;-84
2023/04/03 07:17:28;;;;;;;42.57;3.87;;;;;;;;;;10617485;27;20415;-84
2023/04/03 07:22:31;;;;;;;5.05;1.83;;;;;;;;;;10617063;27;20423;-84
2023/04/03 07:27:33;;;;;;;4.03;1.92;;;;;;;;;;10616683;27;20400;-84
2023/04/03 07:32:35;;;;;;;7.75;2.00;;;;;;;;;;10615703;27;20446;-84
2023/04/03 07:37:38;;;;;;;5.80;2.03;;;;;;;;;;10616367;27;20479;-84
2023/04/03 07:42:40;;;;;;;4.60;1.70;;;;;;;;;;10616326;27;20424;-84
2023/04/03 07:47:41;;;;;;;3.25;1.50;;;;;;;;;;10615877;27;20436;-84
2023/04/03 07:52:45;;;;;;;12.80;2.20;;;;;;;;;;10616911;27;20397;-83
2023/04/03 07:57:47;;;;;;;28.73;3.05;;;;;;;;;;10616264;27;20405;-84
2023/04/03 08:02:51;;;;;;;4.95;2.00;;;;;;;;;;10615973;27;20423;-84
2023/04/03 08:07:54;;;;;;;6.03;1.95;;;;;;;;;;10613010;27;20400;-84
2023/04/03 08:12:56;;;;;;;8.15;1.75;;;;;;;;;;10615440;27;20858;-84
2023/04/03 08:17:58;;;;;;;3.17;1.70;;;;;;;;;;10618400;27;20389;-84
2023/04/03 08:23:01;;;;;;;5.20;1.70;;;;;;;;;;10615112;27;20421;-84
2023/04/03 08:28:03;;;;;;;3.90;2.00;;;;;;;;;;10615135;27;20404;-83
2023/04/03 08:33:05;;;;;;;3.00;1.80;;;;;;;;;;10616088;27;20412;-84
2023/04/03 08:38:09;;;;;;;1.73;1.40;;;;;;;;;;10615601;27;20468;-84
2023/04/03 08:43:28;;;;;;;3.50;1.40;;;;;;;;;;10619583;27;20520;-84
2023/04/03 08:48:33;;;;;;;6.50;1.60;;;;;;;;;;10620353;27;20440;-84
2023/04/03 08:53:41;;;;;;;3.97;1.67;;;;;;;;;;10623036;27;20404;-84
2023/04/03 08:58:48;;;;;;;4.60;1.65;;;;;;;;;;10621429;27;20876;-84
2023/04/03 09:03:50;;;;;;;3.05;1.70;;;;;;;;;;10622585;27;20420;-84
2023/04/03 09:09:02;;;;;;;7.18;1.60;;;;;;;;;;10621775;27;20472;-84
2023/04/03 09:14:12;;;;;;;2.00;1.43;;;;;;;;;;10622702;27;20442;-83
2023/04/03 09:19:23;;;;;;;3.55;1.70;;;;;;;;;;10618332;27;20877;-83
2023/04/03 09:24:27;;;;;;;2.63;1.50;;;;;;;;;;10621942;27;20515;-84
2023/04/03 09:29:29;;;;;;;2.37;1.50;;;;;;;;;;10621297;27;20451;-84
2023/04/03 09:34:36;;;;;;;2.97;1.60;;;;;;;;;;10621425;27;20442;-83
2023/04/03 09:39:53;;;;;;;1.70;1.30;;;;;;;;;;10617096;27;20408;-84
2023/04/03 09:44:57;;;;;;;6.63;1.60;;;;;;;;;;10620947;27;20401;-84
2023/04/03 09:50:19;;;;;;;1.83;1.38;;;;;;;;;;10620222;27;20480;-84
2023/04/03 09:55:27;;;;;;;5.63;1.58;;;;;;;;;;10617872;27;20944;-84
2023/04/03 10:00:33;;;;;;;4.03;1.90;;;;;;;;;;10619941;27;20862;-83
2023/04/03 10:05:38;;;;;;;2.20;1.63;;;;;;;;;;10616409;27;20401;-84
2023/04/03 10:10:43;;;;;;;2.03;1.50;;;;;;;;;;10619071;27;20411;-84
2023/04/03 10:15:47;;;;;;;2.63;1.58;;;;;;;;;;10618317;27;20393;-84
2023/04/03 10:20:52;;;;;;;3.72;1.63;;;;;;;;;;10618074;27;20413;-84
2023/04/03 10:26:10;;;;;;;4.00;1.90;;;;;;;;;;10617857;27;20436;-84
2023/04/03 10:31:17;;;;;;;3.10;1.80;;;;;;;;;;10617955;27;20401;-83
2023/04/03 10:36:28;;;;;;;2.50;1.60;;;;;;;;;;10617985;27;20428;-83
2023/04/03 10:41:44;;;;;;;2.00;1.80;;;;;;;;;;10615045;27;20435;-84
2023/04/03 10:46:49;;;;;;;3.67;1.90;;;;;;;;;;10617739;27;20461;-84
2023/04/03 10:51:59;;;;;;;3.05;1.60;;;;;;;;;;10613559;27;20738;-84
2023/04/03 10:57:06;;;;;;;1.98;1.40;;;;;;;;;;10617974;27;20406;-84
2023/04/03 11:02:17;;;;;;;2.45;2.10;;;;;;;;;;10617202;27;20424;-84
2023/04/03 11:07:23;;;;;;;3.00;2.00;;;;;;;;;;10612744;27;20811;-84
2023/04/03 11:12:34;;;;;;;2.80;1.73;;;;;;;;;;10616837;27;20411;-84
2023/04/03 11:17:44;;;;;;;3.20;2.30;;;;;;;;;;10617225;27;20417;-84
2023/04/03 11:22:51;;;;;;;2.17;1.90;;;;;;;;;;10612737;27;20413;-84
2023/04/03 11:27:58;;;;;;;2.20;2.00;;;;;;;;;;10616260;27;20478;-84
2023/04/03 11:33:26;;;;;;;4.50;2.58;;;;;;;;;;10616349;27;20404;-84
2023/04/03 11:38:31;;;;;;;3.42;1.90;;;;;;;;;;10614511;27;20400;-83
2023/04/03 11:43:34;;;;;;;2.60;1.90;;;;;;;;;;10609002;28;20501;-84
2023/04/03 11:48:47;;;;;;;2.67;2.30;;;;;;;;;;10606815;27;20391;-83
2023/04/03 11:53:49;;;;;;;2.80;1.95;;;;;;;;;;10600706;28;20505;-83
2023/04/03 11:59:24;;;;;;;3.17;2.17;;;;;;;;;;10600455;27;20414;-83
2023/04/03 12:04:28;;;;;;;2.63;2.30;;;;;;;;;;10604727;27;20843;-83
2023/04/03 12:09:58;;;;;;;3.22;2.10;;;;;;;;;;10604029;27;20424;-83
2023/04/03 12:15:24;;;;;;;4.53;2.60;;;;;;;;;;10599200;28;20759;-84
2023/04/03 12:20:53;;;;;;;13.77;3.30;;;;;;;;;;10610669;27;20453;-84
2023/04/03 12:26:02;;;;;;;3.90;2.70;;;;;;;;;;10609453;27;20412;-82
2023/04/03 12:31:06;;;;;;;3.23;2.30;;;;;;;;;;10605333;27;20542;-84
2023/04/03 12:36:13;;;;;;;5.40;2.40;;;;;;;;;;10593828;27;20402;-83
2023/04/03 12:41:22;;;;;;;7.13;2.50;;;;;;;;;;10596069;27;20427;-82
2023/04/03 12:46:34;;;;;;;6.25;2.58;;;;;;;;;;10606747;27;20797;-83
2023/04/03 12:51:40;;;;;;;2.97;2.60;;;;;;;;;;10615361;27;20437;-84
2023/04/03 12:56:42;;;;;;;2.50;2.27;;;;;;;;;;10616903;27;20783;-83
2023/04/03 13:01:54;;;;;;;2.75;2.50;;;;;;;;;;10604582;27;20417;-84
2023/04/03 13:06:56;;;;;;;2.97;2.70;;;;;;;;;;10613763;27;20403;-84
2023/04/03 13:12:02;;;;;;;3.53;2.53;;;;;;;;;;10599184;27;20940;-84
2023/04/03 13:17:13;;;;;;;3.23;2.63;;;;;;;;;;10608008;27;20400;-84
2023/04/03 13:22:27;;;;;;;5.30;2.80;;;;;;;;;;10610181;27;20927;-84
2023/04/03 13:27:31;;;;;;;3.00;2.47;;;;;;;;;;10610279;27;20409;-85
2023/04/03 13:32:35;;;;;;;6.03;3.20;;;;;;;;;;10611939;27;20412;-84
2023/04/03 13:37:37;;;;;;;2.75;2.45;;;;;;;;;;10614379;27;20397;-84
2023/04/03 13:42:41;;;;;;;3.55;2.90;;;;;;;;;;10609824;27;20416;-84
2023/04/03 13:47:46;;;;;;;3.00;2.13;;;;;;;;;;10612635;27;20393;-85
2023/04/03 13:52:50;;;;;;;5.45;2.42;;;;;;;;;;10611581;27;20400;-85
2023/04/03 13:57:58;;;;;;;3.10;2.00;;;;;;;;;;10611037;27;20806;-85
2023/04/03 14:03:01;;;;;;;2.92;2.15;;;;;;;;;;10609035;27;20777;-84
2023/04/03 14:08:04;;;;;;;2.53;2.20;;;;;;;;;;10604926;27;20432;-84
2023/04/03 14:13:06;;;;;;;3.90;2.08;;;;;;;;;;10609453;27;20465;-81
2023/04/03 14:18:12;;;;;;;3.37;1.60;;;;;;;;;;10614125;27;20716;-85
2023/04/03 14:23:14;;;;;;;4.18;1.30;;;;;;;;;;10606632;27;20420;-84
2023/04/03 14:28:19;;;;;;;3.40;1.60;;;;;;;;;;10610688;27;21044;-85
2023/04/03 14:33:23;;;;;;;5.20;1.42;;;;;;;;;;10597308;27;20750;-84
2023/04/03 14:38:27;;;;;;;2.15;1.25;;;;;;;;;;10600220;27;20393;-84
2023/04/03 14:43:29;;;;;;;4.00;1.23;;;;;;;;;;10602738;27;20439;-84
2023/04/03 14:48:32;;;;;;;4.72;1.10;;;;;;;;;;10603462;27;20404;-84
2023/04/03 14:53:34;;;;;;;5.95;1.52;;;;;;;;;;10606244;27;21167;-85
2023/04/03 14:58:36;;;;;;;6.75;1.35;;;;;;;;;;10602063;27;20472;-84
2023/04/03 15:03:40;;;;;;;3.47;0.95;;;;;;;;;;10609239;27;20416;-84
2023/04/03 15:08:43;;;;;;;5.57;1.20;;;;;;;;;;10599163;27;20810;-84
2023/04/03 15:13:46;;;;;;;2.88;1.10;;;;;;;;;;10612692;27;20432;-84
2023/04/03 15:18:49;;;;;;;2.57;0.87;;;;;;;;;;10607974;27;20889;-84
2023/04/03 15:23:51;;;;;;;3.70;1.00;;;;;;;;;;10608350;27;20419;-84
2023/04/03 15:28:53;;;;;;;2.30;0.87;;;;;;;;;;10611922;27;20409;-84
2023/04/03 15:33:56;;;;;;;3.30;0.90;;;;;;;;;;10600313;28;20405;-84
2023/04/03 15:38:58;;;;;;;2.45;0.88;;;;;;;;;;10610499;28;20810;-83
2023/04/03 15:44:00;;;;;;;3.33;1.10;;;;;;;;;;10608195;28;20421;-84
2023/04/03 15:49:03;;;;;;;3.03;1.20;;;;;;;;;;10608018;28;20457;-84
2023/04/03 15:54:05;;;;;;;2.65;1.50;;;;;;;;;;10612612;27;20455;-83
2023/04/03 15:59:07;;;;;;;1.90;1.03;;;;;;;;;;10612090;27;20437;-84
2023/04/03 16:04:11;;;;;;;2.40;1.00;;;;;;;;;;10611617;27;20680;-83
2023/04/03 16:09:12;;;;;;;2.40;1.00;;;;;;;;;;10608951;27;20503;-83
2023/04/03 16:14:14;;;;;;;3.03;0.87;;;;;;;;;;10608157;27;20507;-83
2023/04/03 16:19:18;;;;;;;3.28;0.90;;;;;;;;;;10612833;27;20412;-83
2023/04/03 16:24:20;;;;;;;3.00;1.20;;;;;;;;;;10608069;27;20417;-81
2023/04/03 16:29:22;;;;;;;4.25;1.05;;;;;;;;;;10609761;27;20484;-83
2023/04/03 16:34:26;;;;;;;3.47;1.30;;;;;;;;;;10603537;27;21010;-82
2023/04/03 16:39:28;;;;;;;2.08;1.00;;;;;;;;;;10604362;27;20432;-84
2023/04/03 16:44:30;;;;;;;4.68;1.13;;;;;;;;;;10607151;27;20511;-84
2023/04/03 16:49:33;;;;;;;3.10;1.13;;;;;;;;;;10601356;27;20886;-84
2023/04/03 16:54:35;;;;;;;4.93;1.77;;;;;;;;;;10596220;27;20876;-83
2023/04/03 16:59:37;;;;;;;2.90;1.00;;;;;;;;;;10594386;27;20505;-82
2023/04/03 17:04:40;;;;;;;3.60;0.97;;;;;;;;;;10600608;27;20417;-83
2023/04/03 17:09:42;;;;;;;4.80;1.23;;;;;;;;;;10596564;27;20411;-83
2023/04/03 17:14:45;;;;;;;4.38;1.27;;;;;;;;;;10591943;27;21165;-82
2023/04/03 17:19:48;;;;;;;3.37;1.37;;;;;;;;;;10598481;27;20409;-82
2023/04/03 17:24:50;;;;;;;3.23;1.57;;;;;;;;;;10593118;27;20526;-84
2023/04/03 17:29:53;;;;;;;4.72;1.65;;;;;;;;;;10585196;27;20402;-83
2023/04/03 17:34:56;;;;;;;4.15;1.80;;;;;;;;;;10602851;27;20404;-84
2023/04/03 17:39:58;;;;;;;6.37;2.67;;;;;;;;;;10604582;27;20513;-83
2023/04/03 17:45:00;;;;;;;10.80;5.63;;;;;;;;;;10601431;27;20425;-83
2023/04/03 17:50:03;;;;;;;3.53;1.60;;;;;;;;;;10603258;27;20461;-84
2023/04/03 17:55:06;;;;;;;3.43;1.40;;;;;;;;;;10609373;27;20416;-84
2023/04/03 18:00:09;;;;;;;4.80;1.50;;;;;;;;;;10604591;27;20405;-84
2023/04/03 18:05:12;;;;;;;2.47;1.80;;;;;;;;;;10587349;27;20413;-78
2023/04/03 18:10:14;;;;;;;3.78;1.35;;;;;;;;;;10604727;27;20419;-84
2023/04/03 18:15:16;;;;;;;4.53;1.47;;;;;;;;;;10580205;27;20428;-84
2023/04/03 18:20:20;;;;;;;5.30;2.20;;;;;;;;;;10593117;27;20473;-83
2023/04/03 18:25:22;;;;;;;3.63;1.80;;;;;;;;;;10586511;27;20411;-83
2023/04/03 18:30:25;;;;;;;3.88;1.85;;;;;;;;;;10596194;27;21109;-83
2023/04/03 18:35:28;;;;;;;4.50;1.60;;;;;;;;;;10598275;27;20463;-84
2023/04/03 18:40:31;;;;;;;4.60;2.10;;;;;;;;;;10588027;27;20535;-84
2023/04/03 18:45:33;;;;;;;4.00;2.07;;;;;;;;;;10586088;27;20412;-83
2023/04/03 18:50:36;;;;;;;4.63;2.00;;;;;;;;;;10586207;27;20409;-82
2023/04/03 18:55:38;;;;;;;3.30;1.70;;;;;;;;;;10588958;27;20409;-83
2023/04/03 19:00:41;;;;;;;3.15;1.50;;;;;;;;;;10603826;27;20529;-83
2023/04/03 19:05:45;;;;;;;3.85;2.10;;;;;;;;;;10599313;27;20421;-83
2023/04/03 19:10:46;;;;;;;2.53;1.20;;;;;;;;;;10603932;27;20404;-83
2023/04/03 19:15:50;;;;;;;4.25;1.67;;;;;;;;;;10598286;27;20806;-83
2023/04/03 19:20:56;;;;;;;3.13;1.47;;;;;;;;;;10596932;27;20434;-83
2023/04/03 19:25:59;;;;;;;5.13;2.00;;;;;;;;;;10593214;27;20435;-83
2023/04/03 19:31:02;;;;;;;4.03;1.43;;;;;;;;;;10591327;27;20444;-83
2023/04/03 19:36:07;;;;;;;5.05;1.80;;;;;;;;;;10580633;28;20498;-83
2023/04/03 19:41:11;;;;;;;3.40;1.48;;;;;;;;;;10595168;28;20481;-83
2023/04/03 19:46:14;;;;;;;2.37;1.50;;;;;;;;;;10584646;28;20987;-83
2023/04/03 19:51:17;;;;;;;4.32;1.63;;;;;;;;;;10576084;28;20438;-83
2023/04/03 19:56:20;;;;;;;5.97;1.83;;;;;;;;;;10582082;28;20410;-82
2023/04/03 20:01:23;;;;;;;4.93;1.80;;;;;;;;;;10586224;28;20431;-83
2023/04/03 20:06:26;;;;;;;3.63;1.70;;;;;;;;;;10579218;28;20420;-83
2023/04/03 20:11:28;;;;;;;6.30;2.20;;;;;;;;;;10581384;28;20404;-83
2023/04/03 20:16:30;;;;;;;3.63;1.98;;;;;;;;;;10582643;28;20397;-83
2023/04/03 20:21:34;;;;;;;6.20;2.10;;;;;;;;;;10582423;28;20405;-83
2023/04/03 20:26:40;;;;;;;3.88;1.95;;;;;;;;;;10588747;27;20943;-82
2023/04/03 20:31:42;;;;;;;5.63;2.00;;;;;;;;;;10589206;28;20471;-83
2023/04/03 20:36:46;;;;;;;2.80;1.63;;;;;;;;;;10589427;27;20514;-82
2023/04/03 20:41:48;;;;;;;4.53;1.77;;;;;;;;;;10598871;27;20516;-83
2023/04/03 20:46:50;;;;;;;5.15;1.60;;;;;;;;;;10585664;27;20416;-83
2023/04/03 20:51:54;;;;;;;4.27;1.50;;;;;;;;;;10592755;27;20515;-82
2023/04/03 20:56:55;;;;;;;5.00;1.77;;;;;;;;;;10598387;27;20396;-83
2023/04/03 21:01:58;;;;;;;5.63;1.60;;;;;;;;;;10598600;27;20492;-84
2023/04/03 21:07:37;;;;;;;3.38;1.50;;;;;;;;;;10595593;27;20409;-83
2023/04/03 21:13:17;;;;;;;6.70;1.80;;;;;;;;;;10614043;27;20401;-84
2023/04/03 21:18:55;;;;;;;4.47;1.42;;;;;;;;;;10617353;27;20404;-84
2023/04/03 21:23:57;;;;;;;5.85;1.70;;;;;;;;;;10609466;27;20678;-84
2023/04/03 21:28:59;;;;;;;3.43;1.70;;;;;;;;;;10613465;27;20420;-82
2023/04/03 21:34:02;;;;;;;4.80;1.70;;;;;;;;;;10601330;27;20822;-83
2023/04/03 21:39:04;;;;;;;5.32;1.50;;;;;;;;;;10615265;27;20461;-84
2023/04/03 21:44:06;;;;;;;4.60;1.70;;;;;;;;;;10614372;27;20417;-84
2023/04/03 21:49:09;;;;;;;3.83;1.90;;;;;;;;;;10603455;27;20420;-83
2023/04/03 21:54:11;;;;;;;5.82;1.80;;;;;;;;;;10609544;27;20540;-83
2023/04/03 21:59:13;;;;;;;5.03;1.50;;;;;;;;;;10610757;27;20421;-84
2023/04/03 22:04:17;;;;;;;3.55;1.48;;;;;;;;;;10607818;27;20456;-84
2023/04/03 22:09:19;;;;;;;3.55;1.50;;;;;;;;;;10614238;27;20443;-82
2023/04/03 22:14:21;;;;;;;4.20;1.20;;;;;;;;;;10613564;27;20497;-83
2023/04/03 22:19:24;;;;;;;2.28;1.10;;;;;;;;;;10608283;27;20477;-83
2023/04/03 22:24:26;;;;;;;1.80;1.10;;;;;;;;;;10618480;27;20885;-84
2023/04/03 22:29:28;;;;;;;1.93;1.20;;;;;;;;;;10613818;27;20409;-83
2023/04/03 22:34:32;;;;;;;2.80;1.10;;;;;;;;;;10617796;27;20392;-84
2023/04/03 22:39:33;;;;;;;3.00;1.10;;;;;;;;;;10613736;27;20412;-84
2023/04/03 22:44:35;;;;;;;1.50;1.10;;;;;;;;;;10614136;27;20417;-83
2023/04/03 22:49:38;;;;;;;1.42;1.02;;;;;;;;;;10617722;27;20401;-83
2023/04/03 22:54:41;;;;;;;1.60;1.15;;;;;;;;;;10613286;27;20417;-83
2023/04/03 22:59:42;;;;;;;2.00;1.30;;;;;;;;;;10616574;27;20836;-83
2023/04/03 23:04:46;;;;;;;2.83;1.23;;;;;;;;;;10616460;27;20452;-84
2023/04/03 23:09:48;;;;;;;2.50;1.57;;;;;;;;;;10614997;27;20964;-84
2023/04/03 23:14:50;;;;;;;2.13;1.50;;;;;;;;;;10616768;27;20396;-84
2023/04/03 23:19:53;;;;;;;1.93;1.10;;;;;;;;;;10614949;27;20484;-84
2023/04/03 23:24:55;;;;;;;3.90;2.20;;;;;;;;;;10614237;27;20444;-84
2023/04/03 23:29:57;;;;;;;2.38;1.40;;;;;;;;;;10615910;27;20405;-84
2023/04/03 23:35:00;;;;;;;2.05;1.35;;;;;;;;;;10611368;27;21058;-84
2023/04/03 23:40:02;;;;;;;3.55;1.50;;;;;;;;;;10616036;27;20404;-84
2023/04/03 23:45:04;;;;;;;3.27;1.73;;;;;;;;;;10616080;27;20878;-84
2023/04/03 23:50:09;;;;;;;2.35;1.40;;;;;;;;;;10613610;27;20772;-84
2023/04/03 23:55:11;;;;;;;1.92;1.20;;;;;;;;;;10614959;27;20811;-84
